Hovedside
METAR-TAF:

METAR-TAF

Lufthavner :

Skellefteå lufthavn

Skellefteå, Sverige

breddegrad: 64-38N, lengdegrad: 021-05E, høyde over havet: 49 m

Gjeldene værobservasjon

Denne rapporten ble laget for 25 minutter siden, klokken 04:50 UTC
Vind 11 kt fra Vest
Temperatur -2°C
Luftfuktighet 69%
Trykk 1021 hPa
Sikt 10 km eller mer

METAR: ESNS 220450Z AUTO 26011KT 9999 NCD M02/M07 Q1021

Tid: 06:15 (05:15 UTC)

Varsel

Denne rapporten ble laget for 45 minutter siden, klokken 04:30 UTC
Varsel gyldig fra 22. klokken 05 UTC til 22. klokken 12 UTC
Vind 10 kt fra Vest
Sikt 10 km eller mer
ingen skyer under 1500 m og ingen bygeskyer
Blir
fra 22. klokken 10 UTC til 22. klokken 12 UTC
Vind 8 kt fra Sørvest

TAF: ESNS 220430Z 2205/2212 28010KT CAVOK BECMG 2210/2212 22008KT

Værobservasjoner og værvarsel for over 4000 flyplasser (METAR- og TAF-rapporter).

Tilgjengelige stasjoner er representert av de røde og gule prikkene på kartet.

Hold musepekeren over prikken for å se navnet på stasjonen.

Klikk så for å se værobservasjoner og -varsler.

For å forandre kartet kan du klikke på den grønne knappen med svart kryss for å zoome inn, på den grønne knappen med strek for å zoome ut, eller på de grønne pilene for å se tilstøtende kart.


METAR-TAF: